Aurora, CO (80016)

5:53 AM MDT on July 24, 2016 (GMT -0600)
Greenfield [II] | | Change Station

Elev 5827 ft 39.60 °N, 104.75 °W | Updated 1 minute ago

Mostly Cloudy
Mostly Cloudy
66.7 °F
Feels Like 66.7 °F
N
3.2
Wind Variable Wind from SE

Today
High -- | Low -- °F
--% Chance of Precip.
Yesterday
High -- | Low -- °F
Precip. -- in
Pressure 29.93 in
Visibility 10.0 miles
Clouds Scattered Clouds 13000 ft
Mostly Cloudy 22000 ft
Dew Point 51 °F
Humidity 58%
Rainfall 0.00 in
Snow Depth Not available.
5:51 AM 8:18 PM
Waning Gibbous, 77% visible
METAR KAPA 241053Z 19008KT 10SM SCT130 BKN220 20/08 A3019 RMK AO2 SLP135 T02000083
Pressure 29.93 in
Visibility 10.0 miles
Clouds Scattered Clouds 13000 ft
Mostly Cloudy 22000 ft
Dew Point 51 °F
Humidity 58%
Rainfall 0.00 in
Snow Depth Not available.
5:51 AM 8:18 PM
Waning Gibbous, 77% visible
METAR KAPA 241053Z 19008KT 10SM SCT130 BKN220 20/08 A3019 RMK AO2 SLP135 T02000083

10-Day Weather Forecast

Almanac

Astronomy

Jul. 24, 2016 Rise Set
Actual Time
Civil Twilight
Nautical Twilight
Astronomical Twilight
Moon
Length of Visible Light
Length of Day
Tomorrow will be .
, % of the Moon is Illuminated

Today's Extremes

State Highs State Lows

Community

WunderPhotos

Upload Photos

1,927,049 photos uploaded!

WunderBlog® & News

Nearby

Air Quality

  Air Quality AQ Index Pollutant
Not available.

Snow Depth

Station Depth Elevation

Earthquake Activity

City Distance Mag. Time & Date
Minimum magnitude displayed is 2.5.

Coastal Water Temperatures

Place Temperature

Stations

Nearby Weather Stations

Station Location Temp. Windchill Dew Point Humidity Wind Precip. Elev Updated Type
                   

Watches & Warnings

There are currently no watches in effect.